Time;durP1;ratioP1;P1;durP2;ratioP2;P2;SDS_P1;SDS_P2;PMS_P1;PMS_P2;Temp;Humidity;BMP_temperature;BMP_pressure;BME280_temperature;BME280_humidity;BME280_pressure;Samples;Min_cycle;Max_cycle;Signal;HPM_P1;HPM_P2
2021/05/07 00:04:58;;;;;;;;;;;8.80;99.90;;;7.55;90.56;94807.25;10392768;28;2303;-86
2021/05/07 00:10:06;;;;;;;;;;;8.50;99.90;;;7.57;89.96;94804.28;10411583;28;1669;-87
2021/05/07 00:15:12;;;;;;;;;;;9.60;99.90;;;7.61;88.84;94805.34;10403205;28;1906;-84
2021/05/07 00:20:16;;;;;;;;;;;10.40;99.90;;;7.61;88.51;94793.84;10397612;28;2131;-88
2021/05/07 00:25:19;;;;;;;;;;;9.00;99.90;;;7.51;88.96;94798.22;10375484;28;1663;-87
2021/05/07 00:30:25;;;;;;;;;;;10.00;99.90;;;7.40;88.62;94798.53;10357628;28;1904;-87
2021/05/07 00:35:27;;;;;;;;;;;8.50;99.90;;;7.34;87.82;94796.97;10366824;28;2083;-86
2021/05/07 00:40:32;;;;;;;;;;;8.40;99.90;;;7.29;88.15;94806.63;10359291;28;1675;-86
2021/05/07 00:45:34;;;;;;;;;;;8.30;99.90;;;7.24;89.40;94790.59;10359467;28;2190;-88
2021/05/07 00:50:36;;;;;;;;;;;8.30;99.90;;;7.20;90.06;94804.81;10368913;28;2173;-88
2021/05/07 00:55:39;;;;;;;;;;;8.80;99.90;;;7.15;90.05;94807.50;10373090;28;2204;-88
2021/05/07 01:00:41;;;;;;;;;;;10.10;99.90;;;7.15;90.77;94820.88;10366125;28;2065;-86
2021/05/07 01:05:44;;;;;;;;;;;8.80;99.90;;;7.20;91.14;94799.47;10376155;28;3340;-88
2021/05/07 01:10:49;;;;;;;;;;;8.90;99.90;;;7.22;91.10;94808.78;10365932;28;2976;-87
2021/05/07 01:15:55;;;;;;;;;;;9.50;99.90;;;7.25;90.48;94807.44;10384207;28;2129;-89
2021/05/07 01:21:03;;;;;;;;;;;9.20;99.90;;;7.28;90.81;94801.56;10386931;28;2173;-86
2021/05/07 01:26:20;;;;;;;;;;;8.30;99.90;;;7.30;90.61;94816.22;10357973;28;2067;-88
2021/05/07 01:31:27;;;;;;;;;;;10.20;99.90;;;7.32;90.86;94808.75;10377991;28;2288;-90
2021/05/07 01:36:46;;;;;;;;;;;8.30;99.90;;;7.26;91.41;94814.41;10405194;28;2140;-88
2021/05/07 01:41:57;;;;;;;;;;;9.30;99.90;;;7.25;91.51;94815.44;10402096;28;2101;-87
2021/05/07 01:47:05;;;;;;;;;;;9.60;99.90;;;7.27;91.66;94838.19;10375297;28;2324;-89
2021/05/07 01:52:11;;;;;;;;;;;9.60;99.90;;;7.29;91.50;94829.88;10378442;28;2218;-90
2021/05/07 01:57:17;;;;;;;;;;;9.70;99.90;;;7.26;92.37;94825.88;10374180;28;2168;-87
2021/05/07 02:02:29;;;;;;;;;;;9.50;99.90;;;7.24;91.97;94832.56;10373264;28;2578;-86
2021/05/07 02:07:39;;;;;;;;;;;10.10;99.90;;;7.20;92.06;94828.88;10379745;28;2159;-88
2021/05/07 02:12:48;;;;;;;;;;;8.20;99.90;;;7.23;92.15;94830.97;10375637;28;2109;-87
2021/05/07 02:18:01;;;;;;;;;;;9.20;99.90;;;7.20;92.30;94839.56;10398700;28;2426;-88
2021/05/07 02:23:14;;;;;;;;;;;10.10;99.90;;;7.24;92.32;94832.56;10397787;28;1377;-87
2021/05/07 02:28:20;;;;;;;;;;;9.20;99.90;;;7.26;90.79;94830.44;10417284;28;2045;-86
2021/05/07 02:33:23;;;;;;;;;;;8.90;99.90;;;7.26;91.31;94835.78;10389542;28;2085;-86
2021/05/07 02:38:34;;;;;;;;;;;8.30;99.90;;;7.28;89.70;94839.78;10397000;28;2338;-87
2021/05/07 02:43:45;;;;;;;;;;;8.80;99.90;;;7.26;89.62;94841.13;10382073;28;2124;-88
2021/05/07 02:48:49;;;;;;;;;;;9.30;99.90;;;7.27;88.68;94826.69;10362737;28;1532;-87
2021/05/07 02:53:52;;;;;;;;;;;9.40;99.90;;;7.18;88.35;94825.66;10361745;28;1886;-86
2021/05/07 02:59:02;;;;;;;;;;;8.30;99.90;;;6.94;88.98;94823.63;10374333;28;1298;-87
2021/05/07 03:04:15;;;;;;;;;;;9.90;99.90;;;6.82;89.59;94831.16;10376901;28;2316;-87
2021/05/07 03:09:31;;;;;;;;;;;9.10;99.90;;;6.66;90.52;94832.25;10376965;28;2107;-87
2021/05/07 03:14:35;;;;;;;;;;;8.50;99.90;;;6.59;91.13;94837.09;10375313;28;1969;-87
2021/05/07 03:19:38;;;;;;;;;;;10.00;99.90;;;6.57;91.52;94839.25;10382624;28;2251;-87
2021/05/07 03:24:41;;;;;;;;;;;7.70;99.90;;;6.65;91.01;94852.84;10384950;28;1990;-88
2021/05/07 03:29:45;;;;;;;;;;;7.70;99.90;;;6.74;91.16;94861.06;10368094;28;1290;-84
2021/05/07 03:34:49;;;;;;;;;;;7.80;99.90;;;6.83;90.47;94867.47;10396816;28;1883;-88
2021/05/07 03:39:53;;;;;;;;;;;7.80;99.90;;;6.94;88.95;94861.03;10400817;28;1738;-86
2021/05/07 03:45:05;;;;;;;;;;;9.30;99.90;;;7.02;88.99;94881.84;10415344;28;1447;-87
2021/05/07 03:50:08;;;;;;;;;;;8.00;99.90;;;6.99;88.95;94889.59;10402208;28;1679;-87
2021/05/07 03:55:11;;;;;;;;;;;9.30;99.90;;;6.81;91.77;94904.34;10375486;28;1934;-88
2021/05/07 04:00:13;;;;;;;;;;;7.90;99.90;;;6.76;92.56;94899.03;10385264;28;1898;-87
2021/05/07 04:05:15;;;;;;;;;;;7.80;99.90;;;6.62;93.49;94896.13;10380616;28;1499;-87
2021/05/07 04:10:20;;;;;;;;;;;8.80;99.90;;;6.46;92.83;94881.19;10396884;28;2079;-87
2021/05/07 04:15:23;;;;;;;;;;;7.50;99.90;;;6.30;94.35;94899.09;10387363;28;1969;-87
2021/05/07 04:20:25;;;;;;;;;;;8.20;99.90;;;6.18;94.33;94885.22;10367686;28;1931;-87
2021/05/07 04:25:27;;;;;;;;;;;7.30;99.90;;;6.14;95.34;94902.81;10372099;28;1878;-86
2021/05/07 04:30:29;;;;;;;;;;;8.60;99.90;;;6.10;95.67;94917.75;10366985;28;2047;-85
2021/05/07 04:35:31;;;;;;;;;;;7.10;99.90;;;6.11;96.21;94916.69;10366048;28;1934;-87
2021/05/07 04:40:37;;;;;;;;;;;7.10;99.90;;;6.10;96.18;94905.19;10362671;28;2064;-86
2021/05/07 04:45:38;;;;;;;;;;;8.60;99.90;;;6.10;95.95;94901.72;10360511;28;2127;-87
2021/05/07 04:50:40;;;;;;;;;;;8.60;99.90;;;6.11;96.25;94900.69;10369166;28;1922;-86
2021/05/07 04:55:42;;;;;;;;;;;7.10;99.90;;;6.13;96.73;94933.22;10366275;28;2021;-86
2021/05/07 05:00:45;;;;;;;;;;;7.00;99.90;;;6.14;97.61;94945.50;10385962;28;1997;-88
2021/05/07 05:05:52;;;;;;;;;;;7.10;99.90;;;6.06;97.81;94959.38;10382788;28;1989;-86
2021/05/07 05:10:54;;;;;;;;;;;7.10;99.90;;;6.00;96.96;94957.78;10394436;28;2081;-87
2021/05/07 05:15:56;;;;;;;;;;;7.40;99.90;;;5.92;97.13;94964.44;10373651;28;2031;-86
2021/05/07 05:20:59;;;;;;;;;;;8.20;99.90;;;5.95;98.65;94970.03;10388622;28;1698;-85
2021/05/07 05:26:01;;;;;;;;;;;6.90;99.90;;;5.94;97.39;94987.09;10372591;28;2084;-86
2021/05/07 05:31:03;;;;;;;;;;;6.90;99.90;;;5.94;98.99;95000.44;10386892;28;1998;-88
2021/05/07 05:36:05;;;;;;;;;;;7.10;99.90;;;5.89;98.96;95004.91;10388049;28;1958;-88
2021/05/07 05:41:07;;;;;;;;;;;7.20;99.90;;;5.91;99.92;95014.28;10359088;28;2173;-87
2021/05/07 05:46:10;;;;;;;;;;;6.90;99.90;;;5.86;99.57;95014.25;10374090;28;2079;-86
2021/05/07 05:51:12;;;;;;;;;;;7.10;99.90;;;6.04;100.00;95022.84;10367674;28;1704;-86
2021/05/07 05:56:15;;;;;;;;;;;7.90;99.90;;;6.15;100.00;95032.50;10369223;28;2018;-89
2021/05/07 06:01:17;;;;;;;;;;;8.20;99.90;;;6.03;100.00;95034.59;10370448;28;2170;-87
2021/05/07 06:06:19;;;;;;;;;;;8.60;99.90;;;6.03;99.26;95047.94;10354116;28;1787;-85
2021/05/07 06:11:21;;;;;;;;;;;7.10;99.90;;;6.00;97.30;95043.13;10385705;28;1674;-82
2021/05/07 06:16:23;;;;;;;;;;;7.00;99.90;;;5.99;94.19;95038.88;10357218;28;1922;-83
2021/05/07 06:21:25;;;;;;;;;;;8.30;99.90;;;6.05;95.50;95019.94;10357207;28;2120;-84
2021/05/07 06:26:27;;;;;;;;;;;6.90;99.90;;;6.46;96.36;95025.34;10353016;28;2062;-84
2021/05/07 06:31:29;;;;;;;;;;;7.20;99.90;;;7.12;96.77;95021.84;10349071;28;1656;-83
2021/05/07 06:36:31;;;;;;;;;;;8.60;99.90;;;7.41;94.88;95014.84;10363597;28;2116;-85
2021/05/07 06:41:33;;;;;;;;;;;8.10;99.90;;;8.09;94.14;95020.47;10364681;28;1858;-84
2021/05/07 06:46:36;;;;;;;;;;;9.30;99.90;;;8.00;90.59;95027.44;10349885;28;1860;-83
2021/05/07 06:51:38;;;;;;;;;;;8.90;99.90;;;8.47;89.31;95010.09;10353362;28;2044;-83
2021/05/07 06:56:40;;;;;;;;;;;9.70;99.90;;;8.85;87.14;95013.00;10350406;28;2200;-85
2021/05/07 07:01:45;;;;;;;;;;;10.50;99.90;;;9.08;82.76;95004.22;10350175;28;2201;-83
2021/05/07 07:06:47;;;;;;;;;;;9.80;99.90;;;9.17;81.81;94996.38;10343396;28;2092;-83
2021/05/07 07:11:49;;;;;;;;;;;10.60;99.90;;;9.79;83.73;94999.97;10356508;28;2180;-84
2021/05/07 07:16:51;;;;;;;;;;;10.50;99.90;;;10.51;79.55;95005.22;10382928;28;2326;-82
2021/05/07 07:21:53;;;;;;;;;;;11.00;99.90;;;10.39;79.23;95012.91;10363862;28;2068;-86
2021/05/07 07:26:55;;;;;;;;;;;11.20;99.90;;;10.23;78.41;94998.88;10374572;28;2318;-80
2021/05/07 07:31:57;;;;;;;;;;;11.10;99.90;;;10.36;80.16;94992.78;10394384;28;2189;-85
2021/05/07 07:37:00;;;;;;;;;;;11.10;99.90;;;9.43;77.66;94999.59;10410469;28;1910;-81
2021/05/07 07:42:01;;;;;;;;;;;10.80;99.90;;;9.11;82.72;94995.63;10368449;28;2093;-82
2021/05/07 07:47:04;;;;;;;;;;;10.20;99.90;;;9.20;86.32;94996.59;10361403;28;2131;-85
2021/05/07 07:52:08;;;;;;;;;;;10.20;99.90;;;8.52;89.72;95018.06;10368092;28;2156;-82
2021/05/07 07:57:10;;;;;;;;;;;9.90;99.90;;;8.13;93.19;95031.41;10381250;28;2108;-82
2021/05/07 08:02:12;;;;;;;;;;;9.40;99.90;;;6.38;92.87;95061.38;10375201;28;2108;-83
2021/05/07 08:07:14;;;;;;;;;;;8.20;99.90;;;5.41;95.82;95084.97;10371921;28;2072;-85
2021/05/07 08:12:16;;;;;;;;;;;7.40;99.90;;;5.41;95.47;95094.84;10358484;28;2197;-80
2021/05/07 08:17:18;;;;;;;;;;;6.50;99.90;;;5.00;94.23;95104.41;10376111;28;2127;-82
2021/05/07 08:22:22;;;;;;;;;;;6.20;99.90;;;5.31;94.59;95114.22;10347292;28;2033;-82
2021/05/07 08:27:24;;;;;;;;;;;7.00;99.90;;;5.40;95.41;95133.19;10347834;28;2114;-83
2021/05/07 08:32:27;;;;;;;;;;;7.00;99.90;;;5.24;95.42;95152.81;10355830;28;2291;-83
2021/05/07 08:37:30;;;;;;;;;;;6.30;99.90;;;4.80;95.76;95175.06;10375721;28;2097;-81
2021/05/07 08:42:32;;;;;;;;;;;5.90;99.90;;;4.64;95.30;95180.47;10349724;28;2451;-83
2021/05/07 08:47:34;;;;;;;;;;;5.80;99.90;;;4.44;96.71;95197.84;10351275;28;2144;-82
2021/05/07 08:52:36;;;;;;;;;;;5.90;99.90;;;4.32;96.09;95197.97;10364146;28;2089;-82
2021/05/07 08:57:38;;;;;;;;;;;7.40;99.90;;;4.41;96.90;95197.56;10388905;28;2322;-82
2021/05/07 09:02:40;;;;;;;;;;;6.00;99.90;;;4.92;97.02;95204.22;10386838;28;2029;-82
2021/05/07 09:07:44;;;;;;;;;;;5.60;99.90;;;5.88;95.13;95198.03;10378960;28;2068;-83
2021/05/07 09:12:45;;;;;;;;;;;6.20;99.90;;;5.96;89.69;95210.91;10341365;28;2321;-83
2021/05/07 09:17:47;;;;;;;;;;;7.20;99.90;;;6.33;89.89;95216.19;10356377;28;2441;-82
2021/05/07 09:22:49;;;;;;;;;;;7.90;99.90;;;6.22;87.67;95217.19;10337272;28;2198;-83
2021/05/07 09:27:51;;;;;;;;;;;7.10;99.90;;;6.87;85.83;95239.06;10330148;28;2204;-83
2021/05/07 09:32:53;;;;;;;;;;;8.50;99.90;;;6.25;88.16;95262.06;10322662;28;2239;-83
2021/05/07 09:37:55;;;;;;;;;;;7.90;99.90;;;6.64;90.00;95259.03;10345863;28;2250;-83
2021/05/07 09:42:57;;;;;;;;;;;7.40;99.90;;;7.20;84.22;95260.00;10328966;28;2323;-85
2021/05/07 09:47:59;;;;;;;;;;;8.20;99.90;;;7.35;83.63;95277.94;10333140;28;2200;-84
2021/05/07 09:53:01;;;;;;;;;;;8.50;99.90;;;8.11;81.85;95277.16;10345918;28;2505;-83
2021/05/07 09:58:02;;;;;;;;;;;8.50;99.90;;;8.35;78.03;95290.78;10353335;28;2120;-83
2021/05/07 10:03:05;;;;;;;;;;;8.90;99.90;;;8.15;78.73;95312.25;10348648;28;2282;-84
2021/05/07 10:08:07;;;;;;;;;;;9.20;99.90;;;7.07;83.17;95329.22;10328866;28;2128;-82
2021/05/07 10:13:08;;;;;;;;;;;8.60;99.90;;;7.32;83.74;95326.63;10336589;28;2155;-87
2021/05/07 10:18:10;;;;;;;;;;;8.40;99.90;;;7.27;84.89;95339.97;10347163;28;2170;-84
2021/05/07 10:23:12;;;;;;;;;;;8.40;99.90;;;6.93;83.67;95335.00;10349812;28;2112;-85
2021/05/07 10:28:14;;;;;;;;;;;8.90;99.90;;;7.30;84.85;95342.09;10345048;28;1895;-84
2021/05/07 10:33:16;;;;;;;;;;;8.10;99.90;;;8.04;83.03;95349.72;10341772;28;1914;-86
2021/05/07 10:38:19;;;;;;;;;;;8.70;99.90;;;7.83;83.18;95359.59;10342139;28;2061;-86
2021/05/07 10:43:21;;;;;;;;;;;8.70;99.90;;;8.17;78.83;95355.59;10335110;28;1993;-85
2021/05/07 10:48:23;;;;;;;;;;;9.80;99.90;;;7.98;77.60;95361.47;10364494;28;1923;-85
2021/05/07 10:53:29;;;;;;;;;;;10.10;99.90;;;8.07;78.99;95370.56;10367966;28;1971;-87
2021/05/07 10:58:37;;;;;;;;;;;8.90;99.90;;;9.15;74.85;95374.72;10378965;28;2176;-88
2021/05/07 11:03:41;;;;;;;;;;;11.00;99.90;;;9.21;72.58;95373.63;10365014;28;1947;-88
2021/05/07 11:08:49;;;;;;;;;;;10.10;99.90;;;9.62;73.08;95378.81;10382284;28;2019;-86
2021/05/07 11:13:54;;;;;;;;;;;10.10;99.90;;;10.26;71.45;95369.81;10362384;28;2255;-88
2021/05/07 11:18:58;;;;;;;;;;;10.70;99.90;;;10.46;67.53;95397.59;10338387;28;2192;-88
2021/05/07 11:24:03;;;;;;;;;;;11.10;99.90;;;9.68;67.75;95399.19;10341406;28;2419;-87
2021/05/07 11:29:05;;;;;;;;;;;10.90;99.90;;;9.40;65.67;95408.69;10355677;28;2418;-86
2021/05/07 11:34:10;;;;;;;;;;;10.50;99.90;;;9.90;64.40;95422.13;10356269;28;2226;-86
2021/05/07 11:39:14;;;;;;;;;;;10.50;99.90;;;9.67;66.02;95418.22;10389197;28;2298;-87
2021/05/07 11:44:16;;;;;;;;;;;10.60;99.90;;;8.51;67.77;95439.69;10370596;28;2087;-87
2021/05/07 11:49:26;;;;;;;;;;;10.10;99.90;;;8.31;69.13;95439.66;10365644;28;2560;-85
2021/05/07 11:54:28;;;;;;;;;;;9.50;99.90;;;8.16;71.55;95448.50;10369174;28;1914;-85
2021/05/07 11:59:46;;;;;;;;;;;9.90;99.90;;;7.94;72.35;95458.63;10388341;28;2225;-86
2021/05/07 12:05:07;;;;;;;;;;;9.90;99.90;;;7.91;74.22;95459.97;10371624;28;2162;-86
2021/05/07 12:10:35;;;;;;;;;;;8.90;99.90;;;8.94;75.80;95465.13;10374484;28;2069;-84
2021/05/07 12:15:37;;;;;;;;;;;10.50;99.90;;;9.37;70.24;95467.47;10376751;28;2087;-86
2021/05/07 12:20:40;;;;;;;;;;;10.10;99.90;;;9.18;71.89;95476.09;10366554;28;2298;-84
2021/05/07 12:25:47;;;;;;;;;;;10.20;99.90;;;8.98;66.08;95499.47;10357102;28;2175;-85
2021/05/07 12:30:58;;;;;;;;;;;10.10;99.90;;;8.96;66.07;95498.91;10370540;28;2302;-87
2021/05/07 12:41:31;;;;;;;;;;;10.50;99.90;;;9.24;64.56;95527.03;10345046;28;2142;-87
2021/05/07 12:46:36;;;;;;;;;;;10.00;99.90;;;9.53;63.17;95519.97;10342488;28;2262;-85
2021/05/07 12:51:56;;;;;;;;;;;10.30;99.90;;;9.38;66.44;95528.06;10354027;28;2207;-86
2021/05/07 12:57:04;;;;;;;;;;;10.30;99.90;;;9.21;63.04;95529.16;10369478;28;2013;-87
2021/05/07 13:02:16;;;;;;;;;;;10.30;99.90;;;10.08;57.85;95531.59;10354027;28;2132;-85
2021/05/07 13:07:22;;;;;;;;;;;10.60;99.90;;;11.00;52.77;95506.81;10367425;28;1975;-83
2021/05/07 13:12:36;;;;;;;;;;;11.60;99.90;;;10.50;54.13;95522.28;10372903;28;2288;-85
2021/05/07 13:18:10;;;;;;;;;;;11.70;99.90;;;11.32;54.83;95522.38;10363647;28;2374;-85
2021/05/07 13:24:16;;;;;;;;;;;12.20;99.90;;;11.28;57.79;95518.69;10247311;28;2289;-87
2021/05/07 13:29:53;;;;;;;;;;;12.40;99.90;;;11.24;54.97;95520.31;10242347;28;2065;-86
2021/05/07 13:46:36;;;;;;;;;;;12.70;99.90;;;11.73;50.08;95554.28;10373913;28;2046;-86
2021/05/07 13:51:42;;;;;;;;;;;12.70;99.90;;;10.20;53.40;95583.09;10360778;28;2026;-85
2021/05/07 13:56:51;;;;;;;;;;;11.90;99.90;;;7.26;65.40;95616.41;10342518;28;2222;-84
2021/05/07 14:01:53;;;;;;;;;;;9.30;99.90;;;5.84;71.63;95637.84;10356232;28;2242;-83
2021/05/07 14:06:55;;;;;;;;;;;9.80;99.90;;;5.68;75.13;95639.53;10367631;28;2094;-85
2021/05/07 14:11:58;;;;;;;;;;;7.00;99.90;;;5.64;73.16;95645.59;10370795;28;2033;-84
2021/05/07 14:17:00;;;;;;;;;;;7.00;99.90;;;5.61;75.71;95628.22;10363052;28;1922;-83
2021/05/07 14:22:02;;;;;;;;;;;6.60;99.90;;;6.17;72.28;95625.47;10349235;28;2084;-84
2021/05/07 14:27:04;;;;;;;;;;;7.40;99.90;;;6.69;68.99;95627.66;10390317;28;1690;-85
2021/05/07 14:32:18;;;;;;;;;;;8.70;99.90;;;7.19;68.63;95637.19;10348537;28;2057;-84
2021/05/07 14:37:39;;;;;;;;;;;8.50;99.90;;;8.23;64.92;95641.84;10388228;28;1973;-87
2021/05/07 14:42:48;;;;;;;;;;;8.80;99.90;;;8.78;64.93;95642.28;10387979;28;1354;-86
2021/05/07 14:48:00;;;;;;;;;;;9.60;99.90;;;8.64;64.01;95650.03;10370537;28;2160;-85
2021/05/07 14:53:02;;;;;;;;;;;10.80;99.90;;;8.68;64.80;95648.44;10358636;28;2064;-87
2021/05/07 14:58:08;;;;;;;;;;;9.70;99.90;;;8.83;63.43;95655.69;10376031;28;1891;-87
2021/05/07 15:03:10;;;;;;;;;;;10.20;99.90;;;9.55;58.91;95656.59;10376141;28;2023;-82
2021/05/07 15:08:12;;;;;;;;;;;10.20;99.90;;;10.14;55.27;95661.31;10381986;28;1926;-84
2021/05/07 15:13:14;;;;;;;;;;;10.90;99.90;;;9.68;55.45;95664.88;10365290;28;1875;-83
2021/05/07 15:18:16;;;;;;;;;;;10.80;99.90;;;9.59;50.28;95668.38;10373199;28;1986;-83
2021/05/07 15:23:18;;;;;;;;;;;10.60;99.90;;;9.58;50.26;95669.44;10360799;28;2160;-91
2021/05/07 15:28:20;;;;;;;;;;;10.50;99.90;;;9.44;50.68;95678.03;10378136;28;1698;-85
2021/05/07 15:33:23;;;;;;;;;;;10.40;99.90;;;9.46;51.07;95680.44;10368173;28;2163;-86
2021/05/07 15:38:25;;;;;;;;;;;10.40;99.90;;;9.60;48.69;95689.56;10361900;28;2025;-85
2021/05/07 15:43:27;;;;;;;;;;;10.40;99.90;;;9.61;46.85;95691.19;10359839;28;2104;-83
2021/05/07 15:48:29;;;;;;;;;;;10.50;99.40;;;10.21;47.80;95686.00;10353028;28;2099;-85
2021/05/07 15:53:31;;;;;;;;;;;10.80;99.90;;;9.97;46.01;95680.41;10369614;28;1923;-85
2021/05/07 15:58:50;;;;;;;;;;;11.10;95.30;;;9.48;44.00;95700.59;10361849;28;1887;-85
2021/05/07 16:03:52;;;;;;;;;;;10.70;92.50;;;9.35;43.21;95705.66;10356893;28;2134;-86
2021/05/07 16:08:54;;;;;;;;;;;10.40;89.80;;;9.41;42.94;95723.38;10384803;28;2019;-84
2021/05/07 16:13:58;;;;;;;;;;;10.40;88.70;;;9.39;44.69;95720.16;10377571;28;2104;-85
2021/05/07 16:19:00;;;;;;;;;;;10.30;90.40;;;9.40;44.52;95727.13;10395821;28;2112;-84
2021/05/07 16:24:02;;;;;;;;;;;10.30;89.80;;;9.44;47.07;95730.91;10405309;28;1926;-84
2021/05/07 16:29:04;;;;;;;;;;;10.30;92.10;;;9.80;46.35;95731.72;10399473;28;1998;-84
2021/05/07 16:34:06;;;;;;;;;;;10.60;91.90;;;9.52;46.83;95733.03;10364972;28;1979;-83
2021/05/07 16:39:09;;;;;;;;;;;10.70;91.20;;;9.06;48.80;95735.66;10362352;28;1954;-83
2021/05/07 16:44:11;;;;;;;;;;;10.30;90.90;;;9.43;45.97;95734.66;10386826;28;2183;-83
2021/05/07 16:49:13;;;;;;;;;;;10.20;90.30;;;9.33;46.57;95734.63;10372160;28;1759;-84
2021/05/07 16:54:15;;;;;;;;;;;10.30;90.50;;;9.12;46.95;95750.69;10362629;28;1959;-85
2021/05/07 16:59:17;;;;;;;;;;;10.20;90.40;;;9.12;48.18;95748.00;10367698;28;1919;-88
2021/05/07 17:04:19;;;;;;;;;;;10.10;91.60;;;9.27;47.76;95752.59;10374466;28;1847;-87
2021/05/07 17:09:21;;;;;;;;;;;10.20;91.20;;;9.28;48.32;95751.50;10388739;28;1599;-86
2021/05/07 17:14:23;;;;;;;;;;;10.20;91.00;;;9.13;47.91;95768.38;10381573;28;1910;-87
2021/05/07 17:19:24;;;;;;;;;;;10.20;90.50;;;8.98;48.84;95765.66;10381157;28;1791;-86
2021/05/07 17:24:26;;;;;;;;;;;10.10;91.20;;;8.79;48.59;95780.63;10368254;28;1780;-88
2021/05/07 17:29:28;;;;;;;;;;;9.90;91.30;;;8.78;48.34;95787.00;10362412;28;2109;-88
2021/05/07 17:34:30;;;;;;;;;;;9.80;91.00;;;8.76;48.74;95789.97;10370118;28;1906;-86
2021/05/07 17:39:32;;;;;;;;;;;10.80;92.00;;;8.65;50.03;95793.66;10385749;28;1678;-87
2021/05/07 17:44:41;;;;;;;;;;;9.80;93.00;;;8.33;50.21;95797.22;10380779;28;1600;-88
2021/05/07 17:49:43;;;;;;;;;;;10.70;92.90;;;7.96;52.00;95807.94;10387883;28;1372;-88
2021/05/07 17:54:45;;;;;;;;;;;9.20;93.30;;;7.82;52.99;95817.44;10380339;28;1971;-86
2021/05/07 17:59:47;;;;;;;;;;;9.30;95.10;;;7.77;51.93;95822.78;10371183;28;1879;-88
2021/05/07 18:04:49;;;;;;;;;;;8.90;94.70;;;7.67;53.09;95828.03;10387839;28;1993;-87
2021/05/07 18:09:51;;;;;;;;;;;8.80;95.00;;;7.50;55.34;95836.94;10395185;28;1600;-86
2021/05/07 18:14:53;;;;;;;;;;;8.70;96.80;;;7.39;53.71;95845.94;10377302;28;2124;-87
2021/05/07 18:19:55;;;;;;;;;;;8.70;96.60;;;7.27;56.20;95858.66;10399059;28;2113;-86
2021/05/07 18:24:58;;;;;;;;;;;9.90;98.90;;;7.12;56.14;95856.59;10369955;28;1918;-89
2021/05/07 18:30:00;;;;;;;;;;;8.90;98.80;;;6.95;57.21;95872.69;10368762;28;2209;-87
2021/05/07 18:35:02;;;;;;;;;;;8.20;99.90;;;6.76;57.61;95869.50;10372870;28;2106;-87
2021/05/07 18:40:04;;;;;;;;;;;8.00;99.90;;;6.63;58.68;95879.75;10383585;28;1332;-88
2021/05/07 18:45:07;;;;;;;;;;;8.80;99.90;;;6.47;59.87;95887.53;10404803;28;1730;-88
2021/05/07 18:50:11;;;;;;;;;;;7.70;99.90;;;6.34;60.68;95898.53;10401681;28;2018;-88
2021/05/07 18:55:13;;;;;;;;;;;7.60;99.90;;;6.15;61.57;95905.19;10374937;28;1907;-86
2021/05/07 19:00:16;;;;;;;;;;;8.00;99.90;;;6.00;62.25;95920.94;10363205;28;1774;-86
2021/05/07 19:05:19;;;;;;;;;;;7.40;99.90;;;5.78;64.08;95926.13;10384190;28;2069;-86
2021/05/07 19:10:22;;;;;;;;;;;7.20;99.90;;;5.64;65.39;95930.94;10376681;28;2061;-87
2021/05/07 19:15:24;;;;;;;;;;;7.00;99.90;;;5.49;66.01;95939.47;10411039;28;1969;-86
2021/05/07 19:20:26;;;;;;;;;;;7.70;99.90;;;5.34;67.25;95950.66;10387572;28;2163;-87
2021/05/07 19:25:28;;;;;;;;;;;6.80;99.90;;;5.16;68.53;95961.47;10388869;28;1671;-88
2021/05/07 19:30:30;;;;;;;;;;;6.60;99.90;;;5.02;69.71;95960.06;10391471;28;1539;-87
2021/05/07 19:35:33;;;;;;;;;;;7.10;99.90;;;4.89;70.64;95972.59;10372759;28;2048;-88
2021/05/07 19:40:35;;;;;;;;;;;6.30;99.90;;;4.84;71.02;95963.69;10385917;28;2183;-89
2021/05/07 19:45:37;;;;;;;;;;;6.20;99.90;;;4.73;71.42;95978.63;10408221;28;1984;-90
2021/05/07 19:50:39;;;;;;;;;;;6.10;99.90;;;4.61;72.70;95983.13;10392389;28;2069;-89
2021/05/07 19:55:41;;;;;;;;;;;7.20;99.90;;;4.52;74.17;95981.88;10375900;28;2225;-88
2021/05/07 20:00:43;;;;;;;;;;;5.90;99.90;;;4.44;73.96;95990.16;10360094;28;2331;-86
2021/05/07 20:05:48;;;;;;;;;;;6.40;99.90;;;4.37;73.68;95986.81;10357272;28;2194;-86
2021/05/07 20:10:50;;;;;;;;;;;5.80;99.90;;;4.27;74.36;95990.03;10341450;28;2222;-86
2021/05/07 20:15:52;;;;;;;;;;;6.50;99.90;;;4.17;75.07;95995.91;10337675;28;2173;-86
2021/05/07 20:20:54;;;;;;;;;;;5.80;99.90;;;4.34;74.87;95998.75;10355951;28;2268;-84
2021/05/07 20:25:57;;;;;;;;;;;5.90;99.90;;;4.56;71.93;96009.63;10362216;28;2252;-84
2021/05/07 20:30:59;;;;;;;;;;;5.70;99.90;;;4.56;69.05;96009.63;10348289;28;2114;-85
2021/05/07 20:36:01;;;;;;;;;;;5.70;99.90;;;4.46;70.71;96010.22;10342446;28;2200;-83
2021/05/07 20:41:03;;;;;;;;;;;5.80;99.90;;;4.74;68.07;96022.84;10348835;28;2211;-85
2021/05/07 20:46:06;;;;;;;;;;;5.80;99.90;;;4.60;68.51;96026.78;10335101;28;2239;-86
2021/05/07 20:51:08;;;;;;;;;;;5.90;99.90;;;4.44;69.72;96038.09;10353724;28;2188;-88
2021/05/07 20:56:10;;;;;;;;;;;5.70;99.90;;;4.19;72.99;96032.94;10361005;28;2217;-87
2021/05/07 21:01:13;;;;;;;;;;;7.10;99.90;;;3.98;73.44;96037.72;10347600;28;2120;-86
2021/05/07 21:06:15;;;;;;;;;;;5.50;99.90;;;3.84;75.33;96035.47;10336901;28;2308;-86
2021/05/07 21:11:20;;;;;;;;;;;6.60;99.90;;;4.03;72.77;96045.84;10360100;28;2156;-86
2021/05/07 21:16:23;;;;;;;;;;;5.10;99.90;;;3.96;73.53;96041.66;10357940;28;2199;-85
2021/05/07 21:21:25;;;;;;;;;;;6.20;99.90;;;3.83;74.40;96047.16;10344776;28;2120;-86
2021/05/07 21:26:27;;;;;;;;;;;6.30;99.90;;;3.67;76.27;96054.69;10338510;28;2086;-85
2021/05/07 21:31:30;;;;;;;;;;;6.50;99.90;;;3.52;78.41;96057.72;10360265;28;2177;-86
2021/05/07 21:36:32;;;;;;;;;;;6.30;99.90;;;3.43;78.94;96050.25;10361313;28;2411;-86
2021/05/07 21:41:35;;;;;;;;;;;6.50;99.90;;;3.37;80.12;96053.81;10361141;28;2577;-86
2021/05/07 21:46:41;;;;;;;;;;;6.00;99.90;;;3.32;79.93;96056.34;10361791;28;2135;-86
2021/05/07 21:51:43;;;;;;;;;;;5.80;99.90;;;3.25;80.65;96065.19;10375308;28;2194;-86
2021/05/07 21:56:45;;;;;;;;;;;6.10;99.90;;;3.19;80.76;96058.09;10354468;28;2331;-85
2021/05/07 22:01:48;;;;;;;;;;;5.20;99.90;;;3.17;80.83;96069.94;10346268;28;2346;-85
2021/05/07 22:06:51;;;;;;;;;;;4.40;99.90;;;3.12;82.12;96072.47;10347209;28;2262;-84
2021/05/07 22:11:54;;;;;;;;;;;6.80;99.90;;;3.07;83.18;96080.28;10347892;28;2349;-84
2021/05/07 22:16:56;;;;;;;;;;;4.40;99.90;;;2.99;83.80;96089.34;10363992;28;1984;-86
2021/05/07 22:22:09;;;;;;;;;;;5.20;99.90;;;2.91;84.57;96084.28;10370109;28;2176;-85
2021/05/07 22:27:15;;;;;;;;;;;6.00;99.90;;;2.91;84.72;96092.25;10362024;28;2020;-85
2021/05/07 22:32:18;;;;;;;;;;;4.80;99.90;;;2.93;84.61;96090.22;10377482;28;1484;-85
2021/05/07 22:37:21;;;;;;;;;;;4.20;99.90;;;2.92;84.99;96089.38;10356603;28;1914;-84
2021/05/07 22:42:24;;;;;;;;;;;4.40;99.90;;;2.98;86.30;96088.50;10369274;28;2011;-86
2021/05/07 22:47:27;;;;;;;;;;;5.50;99.90;;;2.96;85.40;96095.09;10370624;28;2001;-85
2021/05/07 22:52:30;;;;;;;;;;;5.30;99.90;;;2.90;86.08;96093.28;10381385;28;1592;-85
2021/05/07 22:57:35;;;;;;;;;;;4.10;99.90;;;2.89;86.05;96092.47;10367564;28;2228;-85
2021/05/07 23:02:37;;;;;;;;;;;5.20;99.90;;;2.83;86.80;96097.84;10365740;28;1894;-84
2021/05/07 23:07:40;;;;;;;;;;;5.90;99.90;;;2.72;87.10;96094.84;10380087;28;2299;-84
2021/05/07 23:12:42;;;;;;;;;;;5.50;99.90;;;2.65;87.27;96095.94;10364432;28;1486;-85
2021/05/07 23:17:45;;;;;;;;;;;5.20;99.90;;;2.57;88.37;96091.72;10359815;28;2209;-86
2021/05/07 23:22:47;;;;;;;;;;;3.90;99.90;;;2.58;88.97;96097.84;10359011;28;2087;-86
2021/05/07 23:27:52;;;;;;;;;;;4.10;99.90;;;2.59;89.42;96091.50;10370853;28;1672;-85
2021/05/07 23:32:54;;;;;;;;;;;3.90;99.90;;;2.58;89.18;96097.84;10374818;28;2180;-85
2021/05/07 23:37:58;;;;;;;;;;;3.80;99.90;;;2.53;89.51;96101.13;10378640;28;2156;-84
2021/05/07 23:43:02;;;;;;;;;;;3.80;99.90;;;2.56;90.46;96095.41;10390967;28;1976;-85
2021/05/07 23:48:04;;;;;;;;;;;3.80;99.90;;;2.56;90.39;96087.44;10394394;28;2006;-84
2021/05/07 23:53:06;;;;;;;;;;;3.80;99.90;;;2.53;90.69;96084.41;10368459;28;1748;-85
2021/05/07 23:58:09;;;;;;;;;;;4.00;99.90;;;2.61;91.75;96082.31;10390689;28;2097;-83
